Time;durP1;ratioP1;P1;durP2;ratioP2;P2;SDS_P1;SDS_P2;PMS_P1;PMS_P2;Temp;Humidity;BMP_temperature;BMP_pressure;BME280_temperature;BME280_humidity;BME280_pressure;Samples;Min_cycle;Max_cycle;Signal;HPM_P1;HPM_P2
2022/02/04 00:20:55;;;;;;;;;17.50;14.00;;;;;10.92;63.21;101598.22;5040217;28;45482;-82
2022/02/04 00:23:25;;;;;;;;;19.00;15.25;;;;;10.95;63.26;101592.91;5028424;28;45240;-82
2022/02/04 00:26:27;;;;;;;;;15.00;14.25;;;;;10.94;63.14;101591.16;5030963;28;45399;-82
2022/02/04 00:28:52;;;;;;;;;15.50;13.75;;;;;10.94;63.22;101590.31;5036734;28;45289;-82
2022/02/04 00:33:48;;;;;;;;;16.00;16.00;;;;;10.95;63.16;101581.50;5040987;28;45404;-82
2022/02/04 00:36:23;;;;;;;;;15.50;13.25;;;;;10.95;63.24;101579.75;5034109;28;45221;-81
2022/02/04 00:38:53;;;;;;;;;18.50;14.75;;;;;10.95;63.28;101577.13;5039188;28;45186;-81
2022/02/04 00:41:22;;;;;;;;;20.25;17.00;;;;;10.99;63.25;101578.78;5038980;28;45537;-82
2022/02/04 00:43:50;;;;;;;;;15.50;13.75;;;;;10.99;62.88;101578.78;5040545;28;45266;-81
2022/02/04 00:46:22;;;;;;;;;18.50;16.75;;;;;11.00;63.04;101575.25;5039878;28;46152;-81
2022/02/04 00:53:52;;;;;;;;;20.00;16.50;;;;;11.00;63.31;101577.00;5040212;28;45281;-82
2022/02/04 00:56:34;;;;;;;;;17.25;15.00;;;;;11.01;62.94;101579.59;5030650;28;45357;-82
2022/02/04 01:26:24;;;;;;;;;12.00;11.75;;;;;10.98;63.29;101581.44;5040051;28;45438;-85
2022/02/04 01:28:52;;;;;;;;;19.50;15.75;;;;;10.96;63.17;101573.59;5039815;28;45487;-85
2022/02/04 01:31:20;;;;;;;;;13.25;12.75;;;;;10.99;63.23;101578.78;5037642;28;45482;-83
2022/02/04 01:33:46;;;;;;;;;18.25;15.50;;;;;10.97;63.43;101567.41;5022133;28;45342;-84
2022/02/04 01:36:13;;;;;;;;;15.75;13.50;;;;;10.95;63.30;101577.13;5039499;28;45461;-85
2022/02/04 01:38:39;;;;;;;;;18.50;17.50;;;;;10.96;63.27;101573.59;5029274;28;48154;-84
2022/02/04 01:41:07;;;;;;;;;17.50;17.00;;;;;10.97;63.64;101575.31;5035177;28;45791;-86
2022/02/04 01:43:32;;;;;;;;;20.00;17.75;;;;;10.96;63.64;101568.34;5039913;28;45296;-86
2022/02/04 01:46:02;;;;;;;;;16.00;15.00;;;;;10.99;63.54;101577.91;5039669;28;45263;-85
2022/02/04 01:48:28;;;;;;;;;20.00;14.75;;;;;10.97;63.36;101574.44;5039786;28;46249;-85
2022/02/04 01:50:54;;;;;;;;;17.75;17.00;;;;;10.94;63.58;101564.84;5036584;28;45329;-85
2022/02/04 01:53:28;;;;;;;;;16.50;15.75;;;;;10.95;63.33;101569.22;5038969;28;45339;-85
2022/02/04 01:55:55;;;;;;;;;13.50;13.50;;;;;10.94;63.64;101564.84;5039622;28;45302;-86
2022/02/04 01:58:20;;;;;;;;;16.50;15.25;;;;;10.94;63.34;101564.84;5039283;28;45491;-85
2022/02/04 02:00:45;;;;;;;;;22.00;18.25;;;;;10.94;63.36;101572.75;5034598;28;45423;-85
2022/02/04 02:03:11;;;;;;;;;17.25;15.00;;;;;10.96;63.37;101570.09;5021341;28;45360;-85
2022/02/04 02:05:36;;;;;;;;;17.75;16.75;;;;;10.94;63.58;101569.28;5038884;28;45477;-85
2022/02/04 02:08:07;;;;;;;;;14.25;13.50;;;;;10.94;63.19;101569.28;5038470;28;46213;-84
2022/02/04 02:10:33;;;;;;;;;17.00;14.50;;;;;10.92;63.40;101566.66;5041252;28;45735;-82
2022/02/04 02:13:11;;;;;;;;;18.50;15.00;;;;;10.91;63.75;101564.94;5043870;28;45405;-82
2022/02/04 02:15:52;;;;;;;;;19.75;16.50;;;;;10.94;63.69;101571.91;5039345;28;45766;-82
2022/02/04 03:01:35;;;;;;;;;15.25;13.75;;;;;10.78;64.50;101532.75;5028492;28;46168;-85
2022/02/04 03:04:05;;;;;;;;;16.75;12.25;;;;;10.78;64.89;101530.13;5036051;28;45216;-82
2022/02/04 03:06:31;;;;;;;;;14.00;13.50;;;;;10.81;64.75;101532.69;5037897;28;45356;-82
2022/02/04 03:08:56;;;;;;;;;12.25;12.25;;;;;10.80;64.62;101526.56;5035857;28;45428;-83
2022/02/04 03:11:22;;;;;;;;;17.50;16.00;;;;;10.80;64.58;101521.31;5044831;28;45317;-82
2022/02/04 03:13:47;;;;;;;;;20.75;15.75;;;;;10.82;64.88;101533.53;5037396;28;45161;-83
2022/02/04 03:16:16;;;;;;;;;14.75;13.50;;;;;10.81;64.83;101516.94;5035466;28;45253;-83
2022/02/04 03:18:46;;;;;;;;;20.00;14.75;;;;;10.80;64.86;101515.19;5040879;28;45613;-82
2022/02/04 03:21:15;;;;;;;;;14.50;13.25;;;;;10.80;64.86;101516.06;5041801;28;46431;-83
2022/02/04 03:23:46;;;;;;;;;13.75;11.50;;;;;10.82;64.81;101515.13;5019985;28;45332;-83
2022/02/04 03:26:22;;;;;;;;;14.25;13.00;;;;;10.81;64.84;101501.16;5035118;28;45407;-83
2022/02/04 03:28:47;;;;;;;;;15.75;13.50;;;;;10.80;64.89;101500.28;5041185;28;45260;-83
2022/02/04 03:31:12;;;;;;;;;17.25;13.25;;;;;10.81;64.82;101506.41;5022952;28;46352;-84
2022/02/04 03:33:40;;;;;;;;;17.00;15.00;;;;;10.78;65.01;101507.34;5041414;28;45319;-86
2022/02/04 03:36:05;;;;;;;;;16.00;13.00;;;;;10.74;64.72;101500.38;5041552;28;45244;-86
2022/02/04 03:38:31;;;;;;;;;12.50;12.50;;;;;10.72;64.97;101511.88;5030279;28;45498;-86
2022/02/04 03:40:56;;;;;;;;;15.25;13.75;;;;;10.70;65.26;101504.00;5041645;28;45645;-86
2022/02/04 03:43:22;;;;;;;;;14.25;12.50;;;;;10.65;64.95;101506.72;5041186;28;45360;-86
2022/02/04 03:45:47;;;;;;;;;21.50;14.00;;;;;10.64;65.34;101504.13;5035504;28;45289;-89
2022/02/04 03:48:13;;;;;;;;;15.75;15.25;;;;;10.62;65.23;101498.88;5022815;28;47324;-89
2022/02/04 03:50:38;;;;;;;;;21.25;17.00;;;;;10.61;65.17;101499.81;5023558;28;48034;-86
2022/02/04 03:53:10;;;;;;;;;18.00;14.50;;;;;10.58;65.16;101495.47;5033498;28;45352;-87
2022/02/04 03:55:36;;;;;;;;;20.25;15.50;;;;;10.61;65.38;101501.56;5035411;28;45407;-96
2022/02/04 03:58:01;;;;;;;;;21.75;16.50;;;;;10.64;65.23;101506.75;5024872;28;47296;-95
2022/02/04 04:00:26;;;;;;;;;19.75;16.00;;;;;10.64;65.24;101501.50;5024258;28;46864;-95
2022/02/04 04:02:51;;;;;;;;;17.25;16.00;;;;;10.63;65.22;101505.03;5040221;28;45654;-90
2022/02/04 04:05:17;;;;;;;;;15.75;12.50;;;;;10.62;64.94;101503.31;5040242;28;45340;-90
2022/02/04 04:07:48;;;;;;;;;18.25;16.00;;;;;10.57;65.37;101499.00;5041179;28;45505;-91
2022/02/04 04:10:24;;;;;;;;;15.00;13.75;;;;;10.61;65.14;101502.44;5041163;28;46251;-90
2022/02/04 04:12:50;;;;;;;;;15.25;12.25;;;;;10.62;65.26;101506.78;5029599;28;45187;-93
2022/02/04 04:15:17;;;;;;;;;16.25;15.00;;;;;10.64;65.38;101504.13;5028637;28;45312;-96
2022/02/04 04:17:44;;;;;;;;;18.00;15.25;;;;;10.64;65.57;101499.72;5020757;28;47118;-95
2022/02/04 04:20:19;;;;;;;;;17.25;15.25;;;;;10.64;65.47;101497.09;5020427;28;47982;-96
2022/02/04 04:22:45;;;;;;;;;16.75;14.50;;;;;10.62;65.41;101495.41;5040318;28;45933;-96
2022/02/04 04:25:12;;;;;;;;;15.50;13.50;;;;;10.65;65.42;101500.59;5017829;28;45273;-92
2022/02/04 04:27:40;;;;;;;;;22.00;17.00;;;;;10.65;65.57;101496.19;5023047;28;45283;-91
2022/02/04 04:30:07;;;;;;;;;22.25;16.25;;;;;10.65;65.62;101490.06;5022857;28;46397;-90
2022/02/04 04:32:33;;;;;;;;;17.50;16.25;;;;;10.66;65.43;101491.81;5024036;28;45262;-94
2022/02/04 04:34:58;;;;;;;;;20.00;16.75;;;;;10.66;65.59;101495.31;5019322;28;45476;-95
2022/02/04 04:37:24;;;;;;;;;24.75;19.25;;;;;10.67;65.45;101488.28;5026646;28;45757;-96
2022/02/04 04:40:04;;;;;;;;;24.25;20.50;;;;;10.64;65.62;101491.84;5038294;28;47720;-96
2022/02/04 04:42:57;;;;;;;;;20.25;17.00;;;;;10.66;65.47;101486.56;5036898;28;45206;-96
2022/02/04 05:29:11;;;;;;;;;25.00;21.25;;;;;10.75;66.01;101472.34;5038679;28;45495;-88
2022/02/04 05:31:36;;;;;;;;;21.25;18.50;;;;;10.75;65.91;101464.44;5021251;28;46857;-88
2022/02/04 05:34:02;;;;;;;;;23.00;19.75;;;;;10.76;66.40;101477.59;5029857;28;45391;-96
2022/02/04 05:36:27;;;;;;;;;24.25;20.50;;;;;10.77;65.89;101473.16;5019585;28;45262;-94
2022/02/04 05:38:54;;;;;;;;;23.75;19.50;;;;;10.77;66.04;101463.50;5022514;28;45420;-92
2022/02/04 05:41:27;;;;;;;;;21.50;19.25;;;;;10.77;66.04;101465.28;5013347;28;46330;-84
2022/02/04 05:43:55;;;;;;;;;24.00;20.25;;;;;10.77;66.02;101460.00;5019700;28;46456;-84
2022/02/04 05:46:26;;;;;;;;;18.00;15.75;;;;;10.75;65.94;101465.31;5023039;28;45697;-87
2022/02/04 05:48:54;;;;;;;;;24.00;20.50;;;;;10.75;66.17;101454.81;5026673;28;45375;-87
2022/02/04 05:53:59;;;;;;;;;22.25;19.75;;;;;10.82;65.98;101463.41;5026566;28;45938;-85
2022/02/04 05:59:12;;;;;;;;;23.50;20.50;;;;;10.82;65.88;101465.16;5037977;28;45402;-82
2022/02/04 06:01:46;;;;;;;;;23.50;19.50;;;;;10.83;65.90;101453.75;5035703;28;45481;-82
2022/02/04 06:10:04;;;;;;;;;27.00;21.75;;;;;10.83;65.88;101452.00;5039394;28;45494;-83
2022/02/04 06:22:49;;;;;;;;;24.50;22.25;;;;;10.78;65.85;101459.13;5033045;28;45710;-88
2022/02/04 06:25:14;;;;;;;;;24.25;21.50;;;;;10.76;66.19;101460.94;5039013;28;45288;-86
2022/02/04 06:27:42;;;;;;;;;25.00;22.25;;;;;10.76;65.80;101472.31;5039290;28;45247;-86
2022/02/04 06:30:08;;;;;;;;;25.75;24.75;;;;;10.74;65.81;101463.56;5039155;28;45336;-83
2022/02/04 06:32:34;;;;;;;;;24.50;22.75;;;;;10.72;65.84;101452.22;5033332;28;45652;-83
2022/02/04 06:35:00;;;;;;;;;23.00;21.50;;;;;10.71;65.74;101454.91;5038452;28;45465;-85
2022/02/04 06:37:26;;;;;;;;;26.50;22.75;;;;;10.70;66.04;101451.41;5038649;28;45925;-85
2022/02/04 06:39:52;;;;;;;;;19.75;17.75;;;;;10.70;66.22;101448.78;5021184;28;45387;-84
2022/02/04 06:42:24;;;;;;;;;23.00;21.75;;;;;10.72;66.21;101449.59;5036957;28;45213;-84
2022/02/04 06:44:49;;;;;;;;;32.25;29.25;;;;;10.76;66.42;101445.16;5035133;28;47859;-85
2022/02/04 06:47:15;;;;;;;;;19.25;17.25;;;;;10.75;66.42;101449.53;5038930;28;45478;-85
2022/02/04 06:49:43;;;;;;;;;25.00;22.00;;;;;10.78;66.57;101444.22;5020902;28;45403;-85
2022/02/04 06:52:08;;;;;;;;;22.00;18.50;;;;;10.79;66.33;101439.84;5034259;28;45335;-85
2022/02/04 06:54:33;;;;;;;;;22.75;19.25;;;;;10.79;66.20;101445.09;5032990;28;45367;-85
2022/02/04 06:56:59;;;;;;;;;22.00;18.50;;;;;10.79;66.19;101442.47;5032313;28;45775;-87
2022/02/04 06:59:24;;;;;;;;;18.25;17.25;;;;;10.79;66.40;101443.31;5038857;28;45394;-85
2022/02/04 07:01:50;;;;;;;;;26.75;20.50;;;;;10.80;65.91;101439.78;5038184;28;46794;-91
2022/02/04 07:04:15;;;;;;;;;21.75;18.25;;;;;10.80;66.40;101449.44;5020909;28;47424;-91
2022/02/04 07:06:49;;;;;;;;;30.25;22.00;;;;;10.77;66.47;101441.59;5031034;28;45166;-91
2022/02/04 07:12:12;;;;;;;;;22.50;17.25;;;;;10.78;66.24;101433.72;5047211;28;45403;-93
2022/02/04 07:20:03;;;;;;;;;19.75;16.50;;;;;10.71;66.60;101437.38;4963755;28;45293;-89
2022/02/04 07:22:31;;;;;;;;;21.50;20.50;;;;;10.73;66.89;101445.22;5008170;28;45508;-88
2022/02/04 07:25:00;;;;;;;;;26.50;22.00;;;;;10.73;66.98;101440.81;5029328;28;46142;-89
2022/02/04 07:27:29;;;;;;;;;26.25;22.00;;;;;10.72;66.93;101439.09;5040996;28;45296;-88
2022/02/04 07:29:56;;;;;;;;;26.25;21.25;;;;;10.72;66.83;101428.56;5041985;28;45213;-88
2022/02/04 07:42:57;;;;;;;;;17.25;16.75;;;;;10.76;66.90;101435.50;5032635;28;45287;-88
2022/02/04 07:45:22;;;;;;;;;20.50;16.75;;;;;10.75;67.26;101423.25;5014378;28;48220;-88
2022/02/04 07:47:49;;;;;;;;;24.25;21.00;;;;;10.78;67.15;101420.56;5010384;28;45763;-89
2022/02/04 07:50:20;;;;;;;;;27.00;19.75;;;;;10.78;67.00;101423.19;5021049;28;45260;-87
2022/02/04 07:52:46;;;;;;;;;24.00;19.50;;;;;10.77;67.44;101421.44;5037923;28;45466;-89
2022/02/04 07:55:11;;;;;;;;;20.50;19.75;;;;;10.78;67.23;101420.56;5028513;28;45490;-87
2022/02/04 07:57:36;;;;;;;;;22.75;18.75;;;;;10.80;67.08;101417.88;5036182;28;45318;-85
2022/02/04 08:00:03;;;;;;;;;20.25;17.75;;;;;10.80;67.22;101421.38;5040949;28;45290;-86
2022/02/04 08:02:29;;;;;;;;;25.25;19.75;;;;;10.79;67.33;101409.13;5033281;28;45730;-86
2022/02/04 08:05:00;;;;;;;;;27.00;24.50;;;;;10.80;67.20;101410.88;5043173;28;45746;-85
2022/02/04 08:07:29;;;;;;;;;22.25;17.75;;;;;10.79;67.16;101405.66;5028252;28;45418;-85
2022/02/04 08:13:34;;;;;;;;;22.25;18.75;;;;;10.79;67.36;101409.13;5036055;28;45434;-85
2022/02/04 08:18:28;;;;;;;;;20.25;17.25;;;;;10.72;67.66;101415.41;5029342;28;45352;-85
2022/02/04 08:55:19;;;;;;;;;14.75;13.50;;;;;10.87;67.48;101426.50;5039039;28;45506;-85
2022/02/04 09:00:29;;;;;;;;;14.75;14.75;;;;;10.86;67.44;101414.25;5039812;28;45462;-86
2022/02/04 09:03:02;;;;;;;;;20.25;15.50;;;;;10.85;67.19;101420.41;5032086;28;45565;-85
2022/02/04 09:05:35;;;;;;;;;20.75;18.00;;;;;10.87;67.52;101419.47;5033195;28;45455;-85
2022/02/04 09:10:38;;;;;;;;;17.00;16.25;;;;;10.89;67.35;101411.56;5028096;28;45418;-85
2022/02/04 09:23:27;;;;;;;;;17.00;14.75;;;;;10.94;67.32;101404.41;5038448;28;45183;-85
2022/02/04 09:25:53;;;;;;;;;18.50;13.50;;;;;10.94;67.36;101401.78;5038481;28;45974;-86
2022/02/04 09:28:18;;;;;;;;;14.00;12.50;;;;;10.97;67.37;101396.44;5038976;28;45408;-85
2022/02/04 09:30:44;;;;;;;;;14.50;12.75;;;;;10.98;67.15;101389.44;5030488;28;45543;-85
2022/02/04 09:33:12;;;;;;;;;13.50;12.25;;;;;11.01;67.28;101397.25;5039231;28;45798;-85
2022/02/04 09:35:38;;;;;;;;;13.00;13.00;;;;;11.06;67.26;101398.00;5030940;28;45260;-85
2022/02/04 09:38:04;;;;;;;;;13.50;13.25;;;;;11.08;67.10;101398.81;5038333;28;47657;-85
2022/02/04 09:40:29;;;;;;;;;13.00;11.50;;;;;11.10;66.91;101404.03;5038847;28;45485;-85
2022/02/04 09:42:55;;;;;;;;;14.50;12.50;;;;;11.12;67.05;101400.47;5039600;28;45236;-85
2022/02/04 09:45:27;;;;;;;;;15.50;13.50;;;;;11.12;66.84;101396.97;5037653;28;45342;-85
2022/02/04 09:48:01;;;;;;;;;12.25;10.50;;;;;11.12;66.80;101389.06;5029471;28;46486;-85
2022/02/04 09:50:29;;;;;;;;;16.75;13.75;;;;;11.16;67.07;101390.72;5034582;28;45371;-85
2022/02/04 10:04:46;;;;;;;;;14.00;13.00;;;;;11.22;67.12;101385.31;5047563;28;45303;-86
2022/02/04 10:07:27;;;;;;;;;14.75;12.50;;;;;11.25;67.15;101385.25;5038262;28;45305;-85
2022/02/04 10:12:39;;;;;;;;;19.25;14.25;;;;;11.27;66.88;101392.22;5048649;28;45297;-85
2022/02/04 10:17:41;;;;;;;;;13.50;11.50;;;;;11.30;67.00;101392.16;5038582;28;45427;-83
2022/02/04 10:20:06;;;;;;;;;16.75;13.00;;;;;11.32;66.63;101385.94;5036720;28;45652;-85
2022/02/04 10:22:34;;;;;;;;;14.25;12.50;;;;;11.29;66.58;101375.50;5037009;28;45489;-85
2022/02/04 10:25:08;;;;;;;;;11.50;11.50;;;;;11.31;66.72;101372.84;5037991;28;45526;-85
2022/02/04 10:27:35;;;;;;;;;17.25;14.25;;;;;11.34;66.68;101367.47;5038953;28;45362;-85
2022/02/04 10:30:10;;;;;;;;;11.00;10.75;;;;;11.37;66.69;101367.41;5032548;28;45487;-85
2022/02/04 10:32:38;;;;;;;;;12.00;10.75;;;;;11.43;66.36;101367.22;5031776;28;45784;-85
2022/02/04 10:35:05;;;;;;;;;11.50;11.50;;;;;11.47;66.47;101373.28;5038340;28;45302;-85
2022/02/04 10:37:33;;;;;;;;;12.75;11.50;;;;;11.52;66.30;101366.13;5033608;28;45615;-85
2022/02/04 10:48:13;;;;;;;;;14.00;11.50;;;;;11.68;66.39;101363.94;5044615;28;45378;-86
2022/02/04 11:01:17;;;;;;;;;10.00;9.50;;;;;11.69;65.85;101355.13;5039646;28;46923;-85
2022/02/04 11:03:52;;;;;;;;;12.00;8.50;;;;;11.72;65.87;101355.97;5043971;28;45594;-85
2022/02/04 11:06:34;;;;;;;;;10.25;9.00;;;;;11.73;66.28;101358.53;5041838;28;45469;-85
2022/02/04 11:09:20;;;;;;;;;9.50;8.00;;;;;11.75;65.73;101355.88;5052630;28;45679;-85
2022/02/04 11:31:04;;;;;;;;;10.00;9.50;;;;;11.98;66.00;101343.81;5040702;28;45521;-86
2022/02/04 11:36:24;;;;;;;;;9.50;8.50;;;;;12.07;65.85;101340.06;5041137;28;45487;-85
2022/02/04 11:54:41;;;;;;;;;5.00;5.00;;;;;12.14;65.51;101315.28;5034761;28;45381;-84
2022/02/04 11:57:07;;;;;;;;;5.00;5.00;;;;;12.17;64.68;101325.72;5029364;28;46318;-85
2022/02/04 12:00:25;;;;;;;;;6.50;6.50;;;;;12.14;64.35;101299.47;5050271;28;45541;-86
2022/02/04 12:02:52;;;;;;;;;6.75;5.00;;;;;12.17;65.12;101293.25;5042062;28;45971;-85
2022/02/04 12:05:18;;;;;;;;;7.25;5.75;;;;;12.20;65.02;101287.88;5040591;28;45505;-86
2022/02/04 12:07:57;;;;;;;;;6.25;5.75;;;;;12.24;63.90;101278.97;5040378;28;45340;-86
2022/02/04 12:10:29;;;;;;;;;6.75;5.00;;;;;12.25;64.38;101270.13;5050174;28;45853;-86
2022/02/04 12:13:06;;;;;;;;;3.50;3.50;;;;;12.27;64.33;101253.34;5046392;28;45299;-84
2022/02/04 12:15:34;;;;;;;;;4.25;4.00;;;;;12.25;63.91;101251.66;5040578;28;45288;-85
2022/02/04 12:18:24;;;;;;;;;4.00;4.00;;;;;12.27;63.58;101256.00;5035899;28;45416;-85
2022/02/04 12:20:50;;;;;;;;;5.50;5.50;;;;;12.25;64.02;101249.91;5034273;28;45185;-84
2022/02/04 12:23:28;;;;;;;;;7.25;6.25;;;;;12.26;64.18;101256.03;5051442;28;45303;-85
2022/02/04 12:26:04;;;;;;;;;5.75;5.50;;;;;12.29;63.49;101249.81;5040774;28;45481;-85
2022/02/04 12:28:39;;;;;;;;;10.75;9.00;;;;;12.28;63.52;101233.13;5040312;28;45399;-84
2022/02/04 12:31:09;;;;;;;;;5.25;4.25;;;;;12.33;63.52;101236.50;5040628;28;45371;-84
2022/02/04 12:33:43;;;;;;;;;2.50;2.00;;;;;12.34;63.01;101232.97;5040602;28;45718;-85
2022/02/04 12:36:27;;;;;;;;;2.00;2.00;;;;;12.37;62.43;101205.63;5022444;28;46199;-86
2022/02/04 12:38:56;;;;;;;;;7.50;3.75;;;;;12.38;62.62;101202.06;5010271;28;48762;-85
2022/02/04 12:41:29;;;;;;;;;4.00;4.00;;;;;12.40;63.38;101194.97;5032949;28;45182;-84
2022/02/04 12:44:06;;;;;;;;;4.50;3.75;;;;;12.47;62.76;101203.56;5036777;28;45283;-85
2022/02/04 12:46:32;;;;;;;;;2.25;2.25;;;;;12.52;62.67;101184.94;5038955;28;46193;-85
2022/02/04 12:49:05;;;;;;;;;3.75;3.75;;;;;12.51;62.61;101175.28;5039835;28;45432;-86
2022/02/04 12:51:38;;;;;;;;;2.00;2.00;;;;;12.58;62.37;101175.03;5039878;28;45329;-85
2022/02/04 12:54:04;;;;;;;;;4.00;2.50;;;;;12.57;61.18;101181.22;5039497;28;45264;-86
2022/02/04 12:56:54;;;;;;;;;2.00;2.00;;;;;12.57;61.47;101172.44;5040185;28;45358;-85
2022/02/04 13:02:24;;;;;;;;;2.25;2.25;;;;;12.60;60.92;101159.16;5039174;28;45822;-84
2022/02/04 13:07:49;;;;;;;;;2.25;2.00;;;;;12.58;61.36;101161.84;5046309;28;45414;-85
2022/02/04 13:10:26;;;;;;;;;3.75;3.75;;;;;12.57;60.99;101157.47;5039095;28;46047;-85
2022/02/04 13:13:02;;;;;;;;;4.50;3.25;;;;;12.60;61.13;101152.09;5038913;28;45427;-84
2022/02/04 13:15:31;;;;;;;;;2.75;2.75;;;;;12.63;61.33;101152.91;5039483;28;45483;-85
2022/02/04 13:17:57;;;;;;;;;3.00;2.50;;;;;12.66;61.63;101158.94;5039476;28;45553;-85
2022/02/04 13:20:24;;;;;;;;;3.00;3.00;;;;;12.71;61.88;101148.25;5031915;28;47119;-85
2022/02/04 13:22:52;;;;;;;;;2.00;2.00;;;;;12.77;61.77;101145.38;5042347;28;45601;-85
2022/02/04 13:25:20;;;;;;;;;3.75;3.00;;;;;12.86;61.65;101144.19;5022605;28;45368;-85
2022/02/04 13:28:02;;;;;;;;;4.75;3.50;;;;;12.88;61.11;101142.34;5037989;28;45414;-85
2022/02/04 13:30:31;;;;;;;;;2.75;2.75;;;;;12.93;60.58;101142.19;5031103;28;45571;-85
2022/02/04 13:32:57;;;;;;;;;3.00;2.75;;;;;12.93;60.04;101147.47;5042112;28;45391;-85
2022/02/04 13:35:27;;;;;;;;;4.00;3.50;;;;;12.92;60.61;101137.81;5049844;28;45315;-85
2022/02/04 13:37:56;;;;;;;;;1.75;1.75;;;;;12.94;60.33;101149.16;5038812;28;45485;-84
2022/02/04 13:40:32;;;;;;;;;1.50;1.50;;;;;12.99;60.24;101154.31;5046989;28;45633;-85
2022/02/04 13:43:21;;;;;;;;;2.25;2.25;;;;;12.98;60.18;101148.16;5037200;28;45491;-85
2022/02/04 13:45:57;;;;;;;;;0.25;0.25;;;;;13.03;60.14;101156.78;5042638;28;45284;-85
2022/02/04 13:48:37;;;;;;;;;0.50;0.50;;;;;13.02;59.12;101156.81;5024327;28;45487;-85
2022/02/04 13:51:22;;;;;;;;;1.25;0.50;;;;;13.01;59.70;101157.75;5038918;28;45371;-85
2022/02/04 13:54:19;;;;;;;;;1.75;1.50;;;;;13.04;59.67;101154.97;5026569;28;45696;-84
2022/02/04 13:56:51;;;;;;;;;2.25;2.00;;;;;13.06;59.81;101155.78;5050497;28;45411;-85
2022/02/04 13:59:27;;;;;;;;;1.50;1.25;;;;;13.08;59.28;101164.50;5037934;28;46167;-85
2022/02/04 14:02:06;;;;;;;;;2.75;2.25;;;;;13.07;59.27;101167.19;5043168;28;46383;-84
2022/02/04 14:04:32;;;;;;;;;2.25;2.25;;;;;13.05;59.49;101154.06;5047524;28;45586;-84
2022/02/04 14:07:08;;;;;;;;;2.25;1.50;;;;;13.07;59.81;101154.00;5040252;28;45472;-85
2022/02/04 14:09:38;;;;;;;;;2.00;1.25;;;;;13.11;59.63;101174.94;5050806;28;45529;-85
2022/02/04 14:12:15;;;;;;;;;1.75;1.75;;;;;13.12;58.87;101175.81;5044618;28;46499;-86
2022/02/04 14:14:40;;;;;;;;;3.00;1.50;;;;;13.08;58.98;101172.44;5039814;28;45361;-86
2022/02/04 14:17:06;;;;;;;;;4.25;4.25;;;;;13.08;58.67;101182.13;5038984;28;45343;-86
2022/02/04 14:19:32;;;;;;;;;1.00;1.00;;;;;13.02;59.22;101156.81;5041920;28;45334;-84
2022/02/04 14:21:57;;;;;;;;;1.25;1.25;;;;;13.00;58.59;101171.84;5034420;28;45430;-84
2022/02/04 14:24:23;;;;;;;;;5.50;5.50;;;;;12.98;59.54;101174.53;5020747;28;45395;-85
2022/02/04 14:26:53;;;;;;;;;2.00;2.00;;;;;13.01;59.46;101169.13;5042100;28;45339;-85
2022/02/04 14:29:25;;;;;;;;;0.50;0.50;;;;;13.04;59.20;101178.72;5050727;28;45268;-85
2022/02/04 14:32:28;;;;;;;;;0.75;0.50;;;;;13.09;59.39;101186.50;5041837;28;47071;-84
2022/02/04 14:37:30;;;;;;;;;1.00;1.00;;;;;13.11;59.18;101179.38;5041346;28;45518;-84
2022/02/04 14:51:37;;;;;;;;;0.50;0.50;;;;;13.01;59.45;101214.00;5042007;28;45230;-84
2022/02/04 14:54:15;;;;;;;;;1.75;1.75;;;;;12.98;59.72;101214.13;5039169;28;45563;-84
2022/02/04 15:02:05;;;;;;;;;2.00;1.50;;;;;12.85;60.89;101237.44;5041081;28;45605;-84
2022/02/04 15:04:49;;;;;;;;;2.50;0.50;;;;;12.81;61.19;101246.38;5041636;28;46316;-85
2022/02/04 15:07:15;;;;;;;;;1.25;1.25;;;;;12.72;62.69;101281.81;5035764;28;45336;-85
2022/02/04 15:09:50;;;;;;;;;0.25;0.25;;;;;12.56;61.76;101308.72;5041382;28;45445;-85
2022/02/04 15:12:16;;;;;;;;;0.00;0.00;;;;;12.32;61.95;101341.97;5041761;28;45686;-84
2022/02/04 15:14:41;;;;;;;;;1.00;1.00;;;;;12.11;62.11;101321.47;5041533;28;45459;-85
2022/02/04 15:17:07;;;;;;;;;2.00;2.00;;;;;11.90;62.96;101323.81;5052649;28;45238;-87
2022/02/04 15:19:34;;;;;;;;;0.75;0.75;;;;;11.75;62.49;101317.25;5055171;28;45452;-86
2022/02/04 15:22:02;;;;;;;;;1.75;1.75;;;;;11.65;63.10;101326.31;5043301;28;45808;-86
2022/02/04 15:24:28;;;;;;;;;1.00;1.00;;;;;11.56;63.46;101325.66;5040659;28;45522;-86
2022/02/04 15:26:53;;;;;;;;;3.00;3.00;;;;;11.40;63.84;101346.28;5040712;28;45473;-86
2022/02/04 15:29:20;;;;;;;;;2.25;1.00;;;;;11.31;63.92;101346.53;5040539;28;45665;-85
2022/02/04 15:31:53;;;;;;;;;3.25;3.00;;;;;11.28;64.03;101351.84;5041033;28;45577;-85
2022/02/04 15:34:20;;;;;;;;;4.25;2.75;;;;;11.18;64.47;101345.97;5041084;28;46220;-85
2022/02/04 15:36:47;;;;;;;;;2.00;1.00;;;;;11.14;64.53;101355.69;5033273;28;45417;-86
2022/02/04 15:39:15;;;;;;;;;2.00;2.00;;;;;11.12;64.88;101368.03;5035654;28;45339;-85
2022/02/04 15:41:41;;;;;;;;;1.00;1.00;;;;;11.10;64.81;101375.09;5040939;28;45350;-85
2022/02/04 15:56:56;;;;;;;;;1.00;0.50;;;;;10.66;63.15;101431.34;5038314;28;45318;-85
2022/02/04 16:04:30;;;;;;;;;5.00;5.00;;;;;10.44;62.97;101431.78;5040796;28;46211;-86
2022/02/04 16:06:56;;;;;;;;;3.00;1.00;;;;;10.40;63.13;101422.22;5022258;28;45483;-86
2022/02/04 16:09:23;;;;;;;;;8.00;8.00;;;;;10.38;62.84;101438.03;5040988;28;45486;-85
2022/02/04 16:16:49;;;;;;;;;6.75;3.75;;;;;10.35;62.79;101449.47;5040033;28;45323;-85
2022/02/04 16:22:03;;;;;;;;;4.50;4.50;;;;;10.34;62.85;101458.25;5040610;28;45493;-85
2022/02/04 16:25:08;;;;;;;;;14.25;11.50;;;;;10.40;62.63;101474.78;5043669;28;46210;-84
2022/02/04 16:30:00;;;;;;;;;5.50;4.50;;;;;10.31;61.93;101481.09;5032472;28;45481;-85
2022/02/04 16:32:28;;;;;;;;;4.75;4.50;;;;;10.31;61.70;101487.22;5039625;28;45390;-85
2022/02/04 16:34:55;;;;;;;;;5.25;5.25;;;;;10.28;61.61;101497.78;5039332;28;45497;-85
2022/02/04 16:37:35;;;;;;;;;4.00;4.00;;;;;10.30;61.47;101496.00;5033213;28;45299;-85
2022/02/04 16:40:05;;;;;;;;;5.50;3.50;;;;;10.26;61.07;101496.94;5031819;28;46677;-85
2022/02/04 16:42:31;;;;;;;;;5.75;5.50;;;;;10.25;61.47;101505.72;5013043;28;48668;-85
2022/02/04 16:44:57;;;;;;;;;5.75;5.75;;;;;10.27;61.79;101517.09;5023118;28;47258;-85
2022/02/04 16:47:22;;;;;;;;;7.25;5.50;;;;;10.32;61.71;101517.00;5032777;28;45596;-86
2022/02/04 16:49:47;;;;;;;;;5.00;5.00;;;;;10.36;61.36;101521.28;5028608;28;45519;-85
2022/02/04 16:52:15;;;;;;;;;11.00;9.25;;;;;10.34;61.09;101521.34;5039856;28;45702;-85
2022/02/04 16:54:42;;;;;;;;;5.50;4.50;;;;;10.38;61.06;101529.13;5027679;28;48070;-87
2022/02/04 16:57:07;;;;;;;;;3.00;3.00;;;;;10.35;60.84;101533.56;5044961;28;45438;-86
2022/02/04 16:59:34;;;;;;;;;4.00;2.75;;;;;10.33;60.35;101540.59;5022720;28;45342;-86
2022/02/04 17:02:01;;;;;;;;;4.25;3.00;;;;;10.32;60.47;101544.13;5039951;28;45254;-85
2022/02/04 17:04:27;;;;;;;;;4.00;3.00;;;;;10.28;60.01;101554.72;5027390;28;46998;-85
2022/02/04 17:07:02;;;;;;;;;4.00;2.25;;;;;10.24;59.76;101562.69;5038093;28;45403;-85
2022/02/04 17:09:31;;;;;;;;;4.00;4.00;;;;;10.22;60.33;101566.22;5039898;28;45219;-85
2022/02/04 17:12:02;;;;;;;;;8.50;4.50;;;;;10.18;60.12;101568.03;5040559;28;45391;-85
2022/02/04 17:14:29;;;;;;;;;8.25;7.00;;;;;10.22;60.13;101580.22;5030061;28;45462;-86
2022/02/04 17:16:56;;;;;;;;;6.25;4.25;;;;;10.21;59.90;101577.63;5026695;28;45526;-85
2022/02/04 17:19:26;;;;;;;;;10.75;9.00;;;;;10.24;59.96;101595.97;5009491;28;46078;-86
2022/02/04 17:21:51;;;;;;;;;10.25;8.00;;;;;10.20;59.73;101607.41;5031040;28;45583;-85
2022/02/04 17:24:19;;;;;;;;;10.50;8.75;;;;;10.16;59.61;101608.34;5041952;28;46345;-85
2022/02/04 17:26:45;;;;;;;;;7.25;6.50;;;;;10.15;59.24;101628.50;5024427;28;45822;-85
2022/02/04 17:29:12;;;;;;;;;4.75;4.75;;;;;10.11;58.52;101616.31;5047014;28;45566;-86
2022/02/04 17:31:38;;;;;;;;;4.50;4.50;;;;;10.11;58.78;101625.06;5035009;28;46243;-85
2022/02/04 17:34:06;;;;;;;;;5.75;4.75;;;;;10.11;58.78;101632.06;5050291;28;45337;-85